sensor_id;sensor_type;location;lat;lon;timestamp;P1;durP1;ratioP1;P2;durP2;ratioP2
13720;SDS011;6932;51.438;5.470;2023-01-28T00:02:13;10.33;;;5.87;;
13720;SDS011;6932;51.438;5.470;2023-01-28T00:04:39;10.33;;;6.07;;
13720;SDS011;6932;51.438;5.470;2023-01-28T00:07:05;10.47;;;6.27;;
13720;SDS011;6932;51.438;5.470;2023-01-28T00:09:31;9.80;;;5.97;;
13720;SDS011;6932;51.438;5.470;2023-01-28T00:11:56;10.53;;;6.17;;
13720;SDS011;6932;51.438;5.470;2023-01-28T00:14:23;10.47;;;5.83;;
13720;SDS011;6932;51.438;5.470;2023-01-28T00:16:49;10.30;;;5.83;;
13720;SDS011;6932;51.438;5.470;2023-01-28T00:19:14;10.00;;;6.07;;
13720;SDS011;6932;51.438;5.470;2023-01-28T00:21:40;9.73;;;6.23;;
13720;SDS011;6932;51.438;5.470;2023-01-28T00:24:06;10.47;;;6.33;;
13720;SDS011;6932;51.438;5.470;2023-01-28T00:26:33;9.93;;;5.97;;
13720;SDS011;6932;51.438;5.470;2023-01-28T00:29:00;10.23;;;6.33;;
13720;SDS011;6932;51.438;5.470;2023-01-28T00:31:26;10.80;;;6.40;;
13720;SDS011;6932;51.438;5.470;2023-01-28T00:33:53;10.13;;;5.97;;
13720;SDS011;6932;51.438;5.470;2023-01-28T00:36:21;10.80;;;6.30;;
13720;SDS011;6932;51.438;5.470;2023-01-28T00:38:50;9.83;;;6.07;;
13720;SDS011;6932;51.438;5.470;2023-01-28T00:41:19;10.87;;;6.57;;
13720;SDS011;6932;51.438;5.470;2023-01-28T00:43:48;10.30;;;6.03;;
13720;SDS011;6932;51.438;5.470;2023-01-28T00:46:15;10.00;;;6.07;;
13720;SDS011;6932;51.438;5.470;2023-01-28T00:48:42;11.00;;;6.40;;
13720;SDS011;6932;51.438;5.470;2023-01-28T00:51:09;10.90;;;6.63;;
13720;SDS011;6932;51.438;5.470;2023-01-28T00:53:37;11.50;;;7.00;;
13720;SDS011;6932;51.438;5.470;2023-01-28T00:56:04;10.40;;;6.10;;
13720;SDS011;6932;51.438;5.470;2023-01-28T00:58:32;10.47;;;6.20;;
13720;SDS011;6932;51.438;5.470;2023-01-28T01:01:31;10.57;;;6.27;;
13720;SDS011;6932;51.438;5.470;2023-01-28T01:03:52;10.17;;;6.00;;
13720;SDS011;6932;51.438;5.470;2023-01-28T01:06:26;10.40;;;6.17;;
13720;SDS011;6932;51.438;5.470;2023-01-28T01:09:05;10.33;;;6.20;;
13720;SDS011;6932;51.438;5.470;2023-01-28T01:11:35;10.40;;;6.20;;
13720;SDS011;6932;51.438;5.470;2023-01-28T01:14:01;9.43;;;5.83;;
13720;SDS011;6932;51.438;5.470;2023-01-28T01:16:29;10.57;;;6.23;;
13720;SDS011;6932;51.438;5.470;2023-01-28T01:18:57;10.23;;;6.27;;
13720;SDS011;6932;51.438;5.470;2023-01-28T01:21:25;10.23;;;6.03;;
13720;SDS011;6932;51.438;5.470;2023-01-28T01:23:53;10.90;;;6.00;;
13720;SDS011;6932;51.438;5.470;2023-01-28T01:26:19;11.33;;;6.87;;
13720;SDS011;6932;51.438;5.470;2023-01-28T01:28:45;10.77;;;6.40;;
13720;SDS011;6932;51.438;5.470;2023-01-28T01:31:13;10.00;;;6.20;;
13720;SDS011;6932;51.438;5.470;2023-01-28T01:33:41;11.07;;;6.63;;
13720;SDS011;6932;51.438;5.470;2023-01-28T01:36:10;11.47;;;6.70;;
13720;SDS011;6932;51.438;5.470;2023-01-28T01:38:38;12.60;;;6.90;;
13720;SDS011;6932;51.438;5.470;2023-01-28T01:41:05;10.77;;;6.67;;
13720;SDS011;6932;51.438;5.470;2023-01-28T01:43:45;10.83;;;6.30;;
13720;SDS011;6932;51.438;5.470;2023-01-28T01:46:16;11.53;;;6.83;;
13720;SDS011;6932;51.438;5.470;2023-01-28T01:49:13;10.53;;;6.30;;
13720;SDS011;6932;51.438;5.470;2023-01-28T01:51:56;10.87;;;6.70;;
13720;SDS011;6932;51.438;5.470;2023-01-28T01:54:31;11.07;;;6.57;;
13720;SDS011;6932;51.438;5.470;2023-01-28T01:56:58;12.43;;;7.10;;
13720;SDS011;6932;51.438;5.470;2023-01-28T01:59:29;11.47;;;6.43;;
13720;SDS011;6932;51.438;5.470;2023-01-28T02:01:57;11.00;;;6.70;;
13720;SDS011;6932;51.438;5.470;2023-01-28T02:04:30;10.93;;;6.50;;
13720;SDS011;6932;51.438;5.470;2023-01-28T02:07:01;12.17;;;7.17;;
13720;SDS011;6932;51.438;5.470;2023-01-28T02:09:28;11.37;;;6.87;;
13720;SDS011;6932;51.438;5.470;2023-01-28T02:12:02;11.50;;;6.67;;
13720;SDS011;6932;51.438;5.470;2023-01-28T02:14:35;11.43;;;6.80;;
13720;SDS011;6932;51.438;5.470;2023-01-28T02:17:08;10.73;;;6.30;;
13720;SDS011;6932;51.438;5.470;2023-01-28T02:19:47;11.10;;;6.63;;
13720;SDS011;6932;51.438;5.470;2023-01-28T02:30:58;12.43;;;6.77;;
13720;SDS011;6932;51.438;5.470;2023-01-28T02:33:51;10.90;;;6.23;;
13720;SDS011;6932;51.438;5.470;2023-01-28T02:36:35;11.33;;;6.40;;
13720;SDS011;6932;51.438;5.470;2023-01-28T02:39:24;10.80;;;6.10;;
13720;SDS011;6932;51.438;5.470;2023-01-28T02:42:05;11.13;;;6.33;;
13720;SDS011;6932;51.438;5.470;2023-01-28T02:44:38;10.50;;;6.10;;
13720;SDS011;6932;51.438;5.470;2023-01-28T02:47:11;10.73;;;6.13;;
13720;SDS011;6932;51.438;5.470;2023-01-28T02:49:57;10.03;;;5.80;;
13720;SDS011;6932;51.438;5.470;2023-01-28T03:03:56;11.57;;;6.77;;
13720;SDS011;6932;51.438;5.470;2023-01-28T03:06:40;11.90;;;6.80;;
13720;SDS011;6932;51.438;5.470;2023-01-28T03:09:14;11.70;;;6.57;;
13720;SDS011;6932;51.438;5.470;2023-01-28T03:11:58;11.57;;;6.80;;
13720;SDS011;6932;51.438;5.470;2023-01-28T03:14:55;11.77;;;7.00;;
13720;SDS011;6932;51.438;5.470;2023-01-28T03:21:19;12.33;;;7.03;;
13720;SDS011;6932;51.438;5.470;2023-01-28T03:24:06;12.70;;;7.40;;
13720;SDS011;6932;51.438;5.470;2023-01-28T03:29:50;12.07;;;7.40;;
13720;SDS011;6932;51.438;5.470;2023-01-28T03:32:39;11.90;;;6.90;;
13720;SDS011;6932;51.438;5.470;2023-01-28T03:35:27;11.77;;;6.77;;
13720;SDS011;6932;51.438;5.470;2023-01-28T03:38:16;12.97;;;7.13;;
13720;SDS011;6932;51.438;5.470;2023-01-28T03:40:50;12.03;;;7.33;;
13720;SDS011;6932;51.438;5.470;2023-01-28T03:43:20;12.47;;;7.30;;
13720;SDS011;6932;51.438;5.470;2023-01-28T03:45:47;12.67;;;7.60;;
13720;SDS011;6932;51.438;5.470;2023-01-28T03:48:19;11.70;;;6.87;;
13720;SDS011;6932;51.438;5.470;2023-01-28T03:50:47;12.20;;;7.17;;
13720;SDS011;6932;51.438;5.470;2023-01-28T03:53:15;11.60;;;6.50;;
13720;SDS011;6932;51.438;5.470;2023-01-28T03:55:42;11.10;;;6.50;;
13720;SDS011;6932;51.438;5.470;2023-01-28T03:58:10;10.57;;;6.30;;
13720;SDS011;6932;51.438;5.470;2023-01-28T04:00:39;10.00;;;5.93;;
13720;SDS011;6932;51.438;5.470;2023-01-28T04:03:11;9.80;;;5.67;;
13720;SDS011;6932;51.438;5.470;2023-01-28T04:05:43;8.67;;;5.13;;
13720;SDS011;6932;51.438;5.470;2023-01-28T04:08:30;9.33;;;5.40;;
13720;SDS011;6932;51.438;5.470;2023-01-28T04:10:56;9.53;;;5.47;;
13720;SDS011;6932;51.438;5.470;2023-01-28T04:13:22;9.00;;;5.20;;
13720;SDS011;6932;51.438;5.470;2023-01-28T04:15:48;10.30;;;5.77;;
13720;SDS011;6932;51.438;5.470;2023-01-28T04:18:14;10.63;;;5.77;;
13720;SDS011;6932;51.438;5.470;2023-01-28T04:20:39;9.87;;;5.77;;
13720;SDS011;6932;51.438;5.470;2023-01-28T04:23:05;10.23;;;5.73;;
13720;SDS011;6932;51.438;5.470;2023-01-28T04:25:32;9.00;;;5.20;;
13720;SDS011;6932;51.438;5.470;2023-01-28T04:27:58;9.00;;;5.27;;
13720;SDS011;6932;51.438;5.470;2023-01-28T04:30:24;9.63;;;5.80;;
13720;SDS011;6932;51.438;5.470;2023-01-28T04:32:50;10.77;;;6.20;;
13720;SDS011;6932;51.438;5.470;2023-01-28T04:35:17;9.20;;;5.37;;
13720;SDS011;6932;51.438;5.470;2023-01-28T04:37:43;8.80;;;5.23;;
13720;SDS011;6932;51.438;5.470;2023-01-28T04:40:10;9.13;;;5.57;;
13720;SDS011;6932;51.438;5.470;2023-01-28T04:42:37;9.90;;;5.87;;
13720;SDS011;6932;51.438;5.470;2023-01-28T04:45:03;9.23;;;5.43;;
13720;SDS011;6932;51.438;5.470;2023-01-28T04:47:30;9.33;;;5.50;;
13720;SDS011;6932;51.438;5.470;2023-01-28T04:49:56;9.30;;;5.10;;
13720;SDS011;6932;51.438;5.470;2023-01-28T04:52:21;9.93;;;5.63;;
13720;SDS011;6932;51.438;5.470;2023-01-28T04:54:47;9.20;;;5.67;;
13720;SDS011;6932;51.438;5.470;2023-01-28T04:57:13;10.47;;;5.60;;
13720;SDS011;6932;51.438;5.470;2023-01-28T04:59:40;9.37;;;5.40;;
13720;SDS011;6932;51.438;5.470;2023-01-28T05:02:06;9.77;;;5.60;;
13720;SDS011;6932;51.438;5.470;2023-01-28T05:04:32;9.80;;;6.03;;
13720;SDS011;6932;51.438;5.470;2023-01-28T05:06:57;8.83;;;5.13;;
13720;SDS011;6932;51.438;5.470;2023-01-28T05:09:23;10.13;;;5.97;;
13720;SDS011;6932;51.438;5.470;2023-01-28T05:11:49;10.90;;;5.80;;
13720;SDS011;6932;51.438;5.470;2023-01-28T05:14:14;9.37;;;5.53;;
13720;SDS011;6932;51.438;5.470;2023-01-28T05:16:40;9.57;;;5.43;;
13720;SDS011;6932;51.438;5.470;2023-01-28T05:19:06;10.50;;;6.13;;
13720;SDS011;6932;51.438;5.470;2023-01-28T05:21:32;10.00;;;5.97;;
13720;SDS011;6932;51.438;5.470;2023-01-28T05:23:57;10.30;;;6.13;;
13720;SDS011;6932;51.438;5.470;2023-01-28T05:26:23;9.53;;;5.60;;
13720;SDS011;6932;51.438;5.470;2023-01-28T05:28:49;9.90;;;5.70;;
13720;SDS011;6932;51.438;5.470;2023-01-28T05:31:15;10.47;;;6.10;;
13720;SDS011;6932;51.438;5.470;2023-01-28T05:33:41;11.13;;;6.43;;
13720;SDS011;6932;51.438;5.470;2023-01-28T05:36:07;10.50;;;6.13;;
13720;SDS011;6932;51.438;5.470;2023-01-28T05:38:32;10.33;;;5.93;;
13720;SDS011;6932;51.438;5.470;2023-01-28T05:40:58;11.13;;;6.60;;
13720;SDS011;6932;51.438;5.470;2023-01-28T05:43:24;10.47;;;6.20;;
13720;SDS011;6932;51.438;5.470;2023-01-28T05:45:50;11.00;;;6.40;;
13720;SDS011;6932;51.438;5.470;2023-01-28T05:48:15;10.73;;;6.20;;
13720;SDS011;6932;51.438;5.470;2023-01-28T05:50:41;12.00;;;6.77;;
13720;SDS011;6932;51.438;5.470;2023-01-28T05:53:07;11.00;;;6.40;;
13720;SDS011;6932;51.438;5.470;2023-01-28T05:55:33;10.40;;;6.33;;
13720;SDS011;6932;51.438;5.470;2023-01-28T05:57:59;10.37;;;6.20;;
13720;SDS011;6932;51.438;5.470;2023-01-28T06:00:26;11.83;;;6.33;;
13720;SDS011;6932;51.438;5.470;2023-01-28T06:02:52;10.63;;;6.13;;
13720;SDS011;6932;51.438;5.470;2023-01-28T06:05:18;11.10;;;6.13;;
13720;SDS011;6932;51.438;5.470;2023-01-28T06:07:45;11.30;;;6.33;;
13720;SDS011;6932;51.438;5.470;2023-01-28T06:10:12;11.00;;;6.20;;
13720;SDS011;6932;51.438;5.470;2023-01-28T06:12:41;10.80;;;6.20;;
13720;SDS011;6932;51.438;5.470;2023-01-28T06:15:08;10.27;;;6.13;;
13720;SDS011;6932;51.438;5.470;2023-01-28T06:17:35;10.33;;;5.80;;
13720;SDS011;6932;51.438;5.470;2023-01-28T06:20:01;10.60;;;5.93;;
13720;SDS011;6932;51.438;5.470;2023-01-28T06:22:27;10.63;;;6.13;;
13720;SDS011;6932;51.438;5.470;2023-01-28T06:24:53;9.70;;;5.60;;
13720;SDS011;6932;51.438;5.470;2023-01-28T06:27:19;10.17;;;5.90;;
13720;SDS011;6932;51.438;5.470;2023-01-28T06:29:45;10.67;;;6.30;;
13720;SDS011;6932;51.438;5.470;2023-01-28T06:32:10;11.17;;;6.27;;
13720;SDS011;6932;51.438;5.470;2023-01-28T06:34:36;11.40;;;6.70;;
13720;SDS011;6932;51.438;5.470;2023-01-28T06:37:03;10.33;;;5.93;;
13720;SDS011;6932;51.438;5.470;2023-01-28T06:39:29;10.87;;;6.13;;
13720;SDS011;6932;51.438;5.470;2023-01-28T06:41:57;9.53;;;5.60;;
13720;SDS011;6932;51.438;5.470;2023-01-28T06:44:23;9.37;;;5.43;;
13720;SDS011;6932;51.438;5.470;2023-01-28T06:46:48;10.00;;;5.73;;
13720;SDS011;6932;51.438;5.470;2023-01-28T06:49:14;10.07;;;5.73;;
13720;SDS011;6932;51.438;5.470;2023-01-28T06:51:40;9.93;;;5.37;;
13720;SDS011;6932;51.438;5.470;2023-01-28T06:54:06;9.73;;;5.63;;
13720;SDS011;6932;51.438;5.470;2023-01-28T06:56:32;10.50;;;6.17;;
13720;SDS011;6932;51.438;5.470;2023-01-28T06:58:58;10.13;;;5.57;;
13720;SDS011;6932;51.438;5.470;2023-01-28T07:01:24;10.10;;;5.70;;
13720;SDS011;6932;51.438;5.470;2023-01-28T07:03:50;9.53;;;5.50;;
13720;SDS011;6932;51.438;5.470;2023-01-28T07:06:16;9.83;;;5.57;;
13720;SDS011;6932;51.438;5.470;2023-01-28T07:08:42;8.87;;;5.17;;
13720;SDS011;6932;51.438;5.470;2023-01-28T07:11:07;9.30;;;5.57;;
13720;SDS011;6932;51.438;5.470;2023-01-28T07:13:33;9.90;;;5.67;;
13720;SDS011;6932;51.438;5.470;2023-01-28T07:15:59;10.47;;;5.80;;
13720;SDS011;6932;51.438;5.470;2023-01-28T07:18:25;10.70;;;6.23;;
13720;SDS011;6932;51.438;5.470;2023-01-28T07:20:51;9.00;;;5.23;;
13720;SDS011;6932;51.438;5.470;2023-01-28T07:23:17;10.30;;;5.77;;
13720;SDS011;6932;51.438;5.470;2023-01-28T07:25:43;9.83;;;5.80;;
13720;SDS011;6932;51.438;5.470;2023-01-28T07:28:08;10.30;;;5.93;;
13720;SDS011;6932;51.438;5.470;2023-01-28T07:30:35;9.60;;;5.70;;
13720;SDS011;6932;51.438;5.470;2023-01-28T07:33:01;10.47;;;5.83;;
13720;SDS011;6932;51.438;5.470;2023-01-28T07:35:27;9.63;;;5.53;;
13720;SDS011;6932;51.438;5.470;2023-01-28T07:37:54;10.13;;;6.07;;
13720;SDS011;6932;51.438;5.470;2023-01-28T07:40:23;10.40;;;5.97;;
13720;SDS011;6932;51.438;5.470;2023-01-28T07:42:50;10.60;;;5.90;;
13720;SDS011;6932;51.438;5.470;2023-01-28T07:45:17;10.67;;;6.10;;
13720;SDS011;6932;51.438;5.470;2023-01-28T07:47:43;11.60;;;6.37;;
13720;SDS011;6932;51.438;5.470;2023-01-28T07:50:09;10.27;;;6.27;;
13720;SDS011;6932;51.438;5.470;2023-01-28T07:52:36;10.70;;;6.00;;
13720;SDS011;6932;51.438;5.470;2023-01-28T07:55:08;10.97;;;6.40;;
13720;SDS011;6932;51.438;5.470;2023-01-28T07:57:46;10.83;;;6.03;;
13720;SDS011;6932;51.438;5.470;2023-01-28T08:00:18;11.17;;;6.13;;
13720;SDS011;6932;51.438;5.470;2023-01-28T08:02:45;12.17;;;6.70;;
13720;SDS011;6932;51.438;5.470;2023-01-28T08:05:21;10.50;;;6.13;;
13720;SDS011;6932;51.438;5.470;2023-01-28T08:07:47;11.47;;;6.10;;
13720;SDS011;6932;51.438;5.470;2023-01-28T08:10:16;11.53;;;6.20;;
13720;SDS011;6932;51.438;5.470;2023-01-28T08:12:53;9.90;;;5.50;;
13720;SDS011;6932;51.438;5.470;2023-01-28T08:15:22;11.07;;;6.27;;
13720;SDS011;6932;51.438;5.470;2023-01-28T08:17:49;10.40;;;5.93;;
13720;SDS011;6932;51.438;5.470;2023-01-28T08:20:17;10.53;;;6.07;;
13720;SDS011;6932;51.438;5.470;2023-01-28T08:22:43;10.70;;;6.23;;
13720;SDS011;6932;51.438;5.470;2023-01-28T08:25:09;10.93;;;6.40;;
13720;SDS011;6932;51.438;5.470;2023-01-28T08:27:35;9.80;;;5.77;;
13720;SDS011;6932;51.438;5.470;2023-01-28T08:30:00;10.17;;;6.10;;
13720;SDS011;6932;51.438;5.470;2023-01-28T08:32:27;10.07;;;6.10;;
13720;SDS011;6932;51.438;5.470;2023-01-28T08:34:54;10.00;;;5.80;;
13720;SDS011;6932;51.438;5.470;2023-01-28T08:37:20;11.27;;;6.57;;
13720;SDS011;6932;51.438;5.470;2023-01-28T08:39:47;10.30;;;5.90;;
13720;SDS011;6932;51.438;5.470;2023-01-28T08:42:14;10.87;;;6.03;;
13720;SDS011;6932;51.438;5.470;2023-01-28T08:44:39;10.97;;;6.23;;
13720;SDS011;6932;51.438;5.470;2023-01-28T08:47:05;11.40;;;6.40;;
13720;SDS011;6932;51.438;5.470;2023-01-28T08:49:31;11.47;;;6.57;;
13720;SDS011;6932;51.438;5.470;2023-01-28T08:51:56;11.87;;;6.83;;
13720;SDS011;6932;51.438;5.470;2023-01-28T08:54:22;10.40;;;6.07;;
13720;SDS011;6932;51.438;5.470;2023-01-28T08:56:48;12.10;;;6.87;;
13720;SDS011;6932;51.438;5.470;2023-01-28T08:59:15;11.07;;;6.60;;
13720;SDS011;6932;51.438;5.470;2023-01-28T09:01:42;11.13;;;6.30;;
13720;SDS011;6932;51.438;5.470;2023-01-28T09:04:08;11.20;;;6.43;;
13720;SDS011;6932;51.438;5.470;2023-01-28T09:06:34;11.57;;;6.40;;
13720;SDS011;6932;51.438;5.470;2023-01-28T09:09:00;10.23;;;6.40;;
13720;SDS011;6932;51.438;5.470;2023-01-28T09:11:26;10.93;;;6.33;;
13720;SDS011;6932;51.438;5.470;2023-01-28T09:13:53;10.50;;;5.93;;
13720;SDS011;6932;51.438;5.470;2023-01-28T09:16:21;11.80;;;7.00;;
13720;SDS011;6932;51.438;5.470;2023-01-28T09:18:47;10.83;;;6.27;;
13720;SDS011;6932;51.438;5.470;2023-01-28T09:21:15;10.27;;;6.17;;
13720;SDS011;6932;51.438;5.470;2023-01-28T09:23:41;10.97;;;6.30;;
13720;SDS011;6932;51.438;5.470;2023-01-28T09:26:08;11.23;;;5.60;;
13720;SDS011;6932;51.438;5.470;2023-01-28T09:28:34;10.93;;;6.10;;
13720;SDS011;6932;51.438;5.470;2023-01-28T09:31:03;10.77;;;5.90;;
13720;SDS011;6932;51.438;5.470;2023-01-28T09:33:32;10.00;;;5.87;;
13720;SDS011;6932;51.438;5.470;2023-01-28T09:36:00;10.93;;;6.20;;
13720;SDS011;6932;51.438;5.470;2023-01-28T09:38:29;11.67;;;6.50;;
13720;SDS011;6932;51.438;5.470;2023-01-28T09:40:56;10.50;;;6.13;;
13720;SDS011;6932;51.438;5.470;2023-01-28T09:46:21;10.57;;;6.03;;
13720;SDS011;6932;51.438;5.470;2023-01-28T09:48:57;11.47;;;6.50;;
13720;SDS011;6932;51.438;5.470;2023-01-28T09:51:40;11.57;;;6.20;;
13720;SDS011;6932;51.438;5.470;2023-01-28T09:54:22;10.27;;;6.10;;
13720;SDS011;6932;51.438;5.470;2023-01-28T09:59:47;10.40;;;6.10;;
13720;SDS011;6932;51.438;5.470;2023-01-28T10:04:46;11.80;;;6.73;;
13720;SDS011;6932;51.438;5.470;2023-01-28T10:07:36;10.43;;;6.23;;
13720;SDS011;6932;51.438;5.470;2023-01-28T10:10:46;10.70;;;5.73;;
13720;SDS011;6932;51.438;5.470;2023-01-28T10:16:18;10.80;;;6.30;;
13720;SDS011;6932;51.438;5.470;2023-01-28T10:19:04;11.93;;;6.30;;
13720;SDS011;6932;51.438;5.470;2023-01-28T10:21:42;10.73;;;6.23;;
13720;SDS011;6932;51.438;5.470;2023-01-28T10:24:16;11.67;;;6.83;;
13720;SDS011;6932;51.438;5.470;2023-01-28T10:26:51;11.53;;;6.73;;
13720;SDS011;6932;51.438;5.470;2023-01-28T10:29:19;11.80;;;6.60;;
13720;SDS011;6932;51.438;5.470;2023-01-28T10:31:51;12.23;;;7.00;;
13720;SDS011;6932;51.438;5.470;2023-01-28T10:34:28;15.93;;;7.20;;
13720;SDS011;6932;51.438;5.470;2023-01-28T10:36:54;12.37;;;7.33;;
13720;SDS011;6932;51.438;5.470;2023-01-28T10:39:23;11.80;;;6.67;;
13720;SDS011;6932;51.438;5.470;2023-01-28T10:41:50;12.07;;;7.13;;
13720;SDS011;6932;51.438;5.470;2023-01-28T10:44:28;11.87;;;7.23;;
13720;SDS011;6932;51.438;5.470;2023-01-28T10:47:09;11.77;;;6.90;;
13720;SDS011;6932;51.438;5.470;2023-01-28T10:49:41;13.00;;;6.93;;
13720;SDS011;6932;51.438;5.470;2023-01-28T10:52:13;12.60;;;7.10;;
13720;SDS011;6932;51.438;5.470;2023-01-28T10:54:40;11.27;;;6.83;;
13720;SDS011;6932;51.438;5.470;2023-01-28T10:57:08;11.87;;;6.93;;
13720;SDS011;6932;51.438;5.470;2023-01-28T10:59:38;11.70;;;7.13;;
13720;SDS011;6932;51.438;5.470;2023-01-28T11:08:01;11.97;;;6.80;;
13720;SDS011;6932;51.438;5.470;2023-01-28T11:10:36;10.77;;;6.63;;
13720;SDS011;6932;51.438;5.470;2023-01-28T11:13:03;11.67;;;7.20;;
13720;SDS011;6932;51.438;5.470;2023-01-28T11:15:31;13.00;;;7.17;;
13720;SDS011;6932;51.438;5.470;2023-01-28T11:17:59;11.33;;;7.03;;
13720;SDS011;6932;51.438;5.470;2023-01-28T11:20:31;11.77;;;6.80;;
13720;SDS011;6932;51.438;5.470;2023-01-28T11:23:05;13.40;;;7.00;;
13720;SDS011;6932;51.438;5.470;2023-01-28T11:25:32;10.70;;;6.43;;
13720;SDS011;6932;51.438;5.470;2023-01-28T11:28:02;10.13;;;6.20;;
13720;SDS011;6932;51.438;5.470;2023-01-28T11:30:39;11.07;;;6.67;;
13720;SDS011;6932;51.438;5.470;2023-01-28T11:33:14;10.83;;;6.20;;
13720;SDS011;6932;51.438;5.470;2023-01-28T11:36:29;10.37;;;6.20;;
13720;SDS011;6932;51.438;5.470;2023-01-28T11:38:52;11.10;;;6.43;;
13720;SDS011;6932;51.438;5.470;2023-01-28T11:41:41;11.10;;;6.47;;
13720;SDS011;6932;51.438;5.470;2023-01-28T11:44:23;10.73;;;6.17;;
13720;SDS011;6932;51.438;5.470;2023-01-28T12:01:21;11.20;;;6.53;;
13720;SDS011;6932;51.438;5.470;2023-01-28T12:04:18;11.93;;;6.90;;
13720;SDS011;6932;51.438;5.470;2023-01-28T12:15:38;11.13;;;6.70;;
13720;SDS011;6932;51.438;5.470;2023-01-28T12:18:23;11.50;;;6.80;;
13720;SDS011;6932;51.438;5.470;2023-01-28T12:21:57;11.53;;;7.00;;
13720;SDS011;6932;51.438;5.470;2023-01-28T12:24:43;10.47;;;5.80;;
13720;SDS011;6932;51.438;5.470;2023-01-28T12:33:32;10.80;;;6.10;;
13720;SDS011;6932;51.438;5.470;2023-01-28T12:42:44;10.73;;;5.90;;
13720;SDS011;6932;51.438;5.470;2023-01-28T12:45:27;11.27;;;6.00;;
13720;SDS011;6932;51.438;5.470;2023-01-28T12:51:07;11.10;;;5.80;;
13720;SDS011;6932;51.438;5.470;2023-01-28T12:53:50;11.40;;;6.37;;
13720;SDS011;6932;51.438;5.470;2023-01-28T12:56:44;12.50;;;6.87;;
13720;SDS011;6932;51.438;5.470;2023-01-28T12:59:27;12.00;;;6.67;;
13720;SDS011;6932;51.438;5.470;2023-01-28T13:07:31;12.53;;;6.80;;
13720;SDS011;6932;51.438;5.470;2023-01-28T13:12:45;10.87;;;6.07;;
13720;SDS011;6932;51.438;5.470;2023-01-28T13:15:14;11.30;;;6.20;;
13720;SDS011;6932;51.438;5.470;2023-01-28T13:21:00;9.57;;;5.43;;
13720;SDS011;6932;51.438;5.470;2023-01-28T13:25:56;9.17;;;5.60;;
13720;SDS011;6932;51.438;5.470;2023-01-28T13:28:35;10.67;;;5.53;;
13720;SDS011;6932;51.438;5.470;2023-01-28T13:31:02;9.63;;;5.50;;
13720;SDS011;6932;51.438;5.470;2023-01-28T13:33:42;9.20;;;5.67;;
13720;SDS011;6932;51.438;5.470;2023-01-28T13:36:26;9.97;;;5.40;;
13720;SDS011;6932;51.438;5.470;2023-01-28T13:38:59;9.13;;;5.47;;
13720;SDS011;6932;51.438;5.470;2023-01-28T13:41:43;9.27;;;5.43;;
13720;SDS011;6932;51.438;5.470;2023-01-28T13:54:40;10.07;;;5.63;;
13720;SDS011;6932;51.438;5.470;2023-01-28T13:57:46;8.30;;;4.80;;
13720;SDS011;6932;51.438;5.470;2023-01-28T14:15:21;9.17;;;5.03;;
13720;SDS011;6932;51.438;5.470;2023-01-28T14:18:43;8.40;;;5.00;;
13720;SDS011;6932;51.438;5.470;2023-01-28T14:21:13;8.80;;;5.07;;
13720;SDS011;6932;51.438;5.470;2023-01-28T14:23:53;9.70;;;5.13;;
13720;SDS011;6932;51.438;5.470;2023-01-28T14:26:25;9.83;;;5.57;;
13720;SDS011;6932;51.438;5.470;2023-01-28T14:32:30;10.17;;;5.40;;
13720;SDS011;6932;51.438;5.470;2023-01-28T14:34:59;8.73;;;5.30;;
13720;SDS011;6932;51.438;5.470;2023-01-28T14:37:33;8.90;;;5.23;;
13720;SDS011;6932;51.438;5.470;2023-01-28T14:40:00;9.73;;;5.63;;
13720;SDS011;6932;51.438;5.470;2023-01-28T14:42:38;10.07;;;5.77;;
13720;SDS011;6932;51.438;5.470;2023-01-28T14:59:54;9.17;;;5.20;;
13720;SDS011;6932;51.438;5.470;2023-01-28T15:02:32;11.80;;;5.57;;
13720;SDS011;6932;51.438;5.470;2023-01-28T15:05:09;9.07;;;5.23;;
13720;SDS011;6932;51.438;5.470;2023-01-28T15:07:47;8.70;;;5.10;;
13720;SDS011;6932;51.438;5.470;2023-01-28T15:10:27;8.73;;;5.20;;
13720;SDS011;6932;51.438;5.470;2023-01-28T15:12:58;9.70;;;5.43;;
13720;SDS011;6932;51.438;5.470;2023-01-28T15:15:45;9.27;;;5.40;;
13720;SDS011;6932;51.438;5.470;2023-01-28T15:18:25;9.37;;;5.40;;
13720;SDS011;6932;51.438;5.470;2023-01-28T15:21:01;9.50;;;5.63;;
13720;SDS011;6932;51.438;5.470;2023-01-28T15:23:32;8.73;;;5.27;;
13720;SDS011;6932;51.438;5.470;2023-01-28T15:26:05;8.73;;;5.13;;
13720;SDS011;6932;51.438;5.470;2023-01-28T15:28:41;10.37;;;5.73;;
13720;SDS011;6932;51.438;5.470;2023-01-28T15:31:20;9.20;;;5.30;;
13720;SDS011;6932;51.438;5.470;2023-01-28T15:33:59;8.57;;;4.90;;
13720;SDS011;6932;51.438;5.470;2023-01-28T15:36:37;9.33;;;5.20;;
13720;SDS011;6932;51.438;5.470;2023-01-28T15:39:03;9.60;;;5.50;;
13720;SDS011;6932;51.438;5.470;2023-01-28T15:41:38;9.13;;;5.13;;
13720;SDS011;6932;51.438;5.470;2023-01-28T15:46:59;8.20;;;4.80;;
13720;SDS011;6932;51.438;5.470;2023-01-28T15:49:35;10.67;;;5.40;;
13720;SDS011;6932;51.438;5.470;2023-01-28T15:52:07;9.57;;;5.57;;
13720;SDS011;6932;51.438;5.470;2023-01-28T15:54:36;9.67;;;5.67;;
13720;SDS011;6932;51.438;5.470;2023-01-28T15:57:14;9.03;;;5.17;;
13720;SDS011;6932;51.438;5.470;2023-01-28T16:00:09;10.10;;;4.90;;
13720;SDS011;6932;51.438;5.470;2023-01-28T16:02:45;11.20;;;5.53;;
13720;SDS011;6932;51.438;5.470;2023-01-28T16:05:23;10.23;;;5.37;;
13720;SDS011;6932;51.438;5.470;2023-01-28T16:08:06;10.73;;;5.50;;
13720;SDS011;6932;51.438;5.470;2023-01-28T16:10:44;9.10;;;5.30;;
13720;SDS011;6932;51.438;5.470;2023-01-28T16:13:21;9.23;;;5.37;;
13720;SDS011;6932;51.438;5.470;2023-01-28T16:15:52;8.50;;;5.13;;
13720;SDS011;6932;51.438;5.470;2023-01-28T16:21:08;9.50;;;4.90;;
13720;SDS011;6932;51.438;5.470;2023-01-28T16:23:49;8.47;;;4.90;;
13720;SDS011;6932;51.438;5.470;2023-01-28T16:26:22;9.30;;;5.07;;
13720;SDS011;6932;51.438;5.470;2023-01-28T16:28:50;9.40;;;5.33;;
13720;SDS011;6932;51.438;5.470;2023-01-28T16:31:16;9.07;;;5.43;;
13720;SDS011;6932;51.438;5.470;2023-01-28T16:33:42;10.20;;;5.93;;
13720;SDS011;6932;51.438;5.470;2023-01-28T16:36:09;9.87;;;5.70;;
13720;SDS011;6932;51.438;5.470;2023-01-28T16:38:40;13.47;;;7.40;;
13720;SDS011;6932;51.438;5.470;2023-01-28T16:41:12;12.23;;;7.50;;
13720;SDS011;6932;51.438;5.470;2023-01-28T16:43:52;12.97;;;7.70;;
13720;SDS011;6932;51.438;5.470;2023-01-28T16:46:18;13.70;;;7.83;;
13720;SDS011;6932;51.438;5.470;2023-01-28T16:48:44;11.17;;;6.30;;
13720;SDS011;6932;51.438;5.470;2023-01-28T16:51:15;10.80;;;6.07;;
13720;SDS011;6932;51.438;5.470;2023-01-28T16:53:43;10.73;;;5.80;;
13720;SDS011;6932;51.438;5.470;2023-01-28T16:56:15;9.23;;;5.50;;
13720;SDS011;6932;51.438;5.470;2023-01-28T16:58:45;10.17;;;5.93;;
13720;SDS011;6932;51.438;5.470;2023-01-28T17:01:11;11.73;;;5.83;;
13720;SDS011;6932;51.438;5.470;2023-01-28T17:03:37;10.47;;;6.50;;
13720;SDS011;6932;51.438;5.470;2023-01-28T17:06:07;11.30;;;6.37;;
13720;SDS011;6932;51.438;5.470;2023-01-28T17:08:35;10.50;;;6.27;;
13720;SDS011;6932;51.438;5.470;2023-01-28T17:11:02;16.83;;;6.67;;
13720;SDS011;6932;51.438;5.470;2023-01-28T17:13:28;11.50;;;6.80;;
13720;SDS011;6932;51.438;5.470;2023-01-28T17:15:53;11.47;;;6.47;;
13720;SDS011;6932;51.438;5.470;2023-01-28T17:18:19;13.13;;;7.00;;
13720;SDS011;6932;51.438;5.470;2023-01-28T17:20:45;11.87;;;6.93;;
13720;SDS011;6932;51.438;5.470;2023-01-28T17:23:12;11.50;;;6.67;;
13720;SDS011;6932;51.438;5.470;2023-01-28T17:25:40;12.40;;;7.50;;
13720;SDS011;6932;51.438;5.470;2023-01-28T17:28:07;12.97;;;7.50;;
13720;SDS011;6932;51.438;5.470;2023-01-28T17:30:33;13.50;;;8.03;;
13720;SDS011;6932;51.438;5.470;2023-01-28T17:33:03;13.67;;;8.07;;
13720;SDS011;6932;51.438;5.470;2023-01-28T17:35:29;13.63;;;8.23;;
13720;SDS011;6932;51.438;5.470;2023-01-28T17:37:55;13.80;;;7.60;;
13720;SDS011;6932;51.438;5.470;2023-01-28T17:40:21;13.53;;;8.07;;
13720;SDS011;6932;51.438;5.470;2023-01-28T17:42:47;14.53;;;8.33;;